sensor_id;sensor_type;location;lat;lon;timestamp;P1;durP1;ratioP1;P2;durP2;ratioP2
54201;SDS011;40108;53.152;5.844;2024-02-26T00:01:01;33.28;;;15.57;;
54201;SDS011;40108;53.152;5.844;2024-02-26T00:03:27;23.83;;;15.30;;
54201;SDS011;40108;53.152;5.844;2024-02-26T00:05:53;23.38;;;14.25;;
54201;SDS011;40108;53.152;5.844;2024-02-26T00:08:18;25.65;;;15.32;;
54201;SDS011;40108;53.152;5.844;2024-02-26T00:10:44;23.10;;;14.32;;
54201;SDS011;40108;53.152;5.844;2024-02-26T00:13:09;20.65;;;14.20;;
54201;SDS011;40108;53.152;5.844;2024-02-26T00:15:35;22.58;;;14.05;;
54201;SDS011;40108;53.152;5.844;2024-02-26T00:18:01;21.83;;;13.38;;
54201;SDS011;40108;53.152;5.844;2024-02-26T00:20:27;20.55;;;13.00;;
54201;SDS011;40108;53.152;5.844;2024-02-26T00:22:52;17.52;;;12.48;;
54201;SDS011;40108;53.152;5.844;2024-02-26T00:25:18;20.38;;;12.38;;
54201;SDS011;40108;53.152;5.844;2024-02-26T00:27:44;18.73;;;12.15;;
54201;SDS011;40108;53.152;5.844;2024-02-26T00:30:10;17.65;;;12.15;;
54201;SDS011;40108;53.152;5.844;2024-02-26T00:32:37;17.85;;;12.07;;
54201;SDS011;40108;53.152;5.844;2024-02-26T00:35:02;20.40;;;12.98;;
54201;SDS011;40108;53.152;5.844;2024-02-26T00:37:28;16.10;;;11.90;;
54201;SDS011;40108;53.152;5.844;2024-02-26T00:39:54;18.02;;;11.70;;
54201;SDS011;40108;53.152;5.844;2024-02-26T00:42:19;18.98;;;12.85;;
54201;SDS011;40108;53.152;5.844;2024-02-26T00:44:45;17.98;;;12.07;;
54201;SDS011;40108;53.152;5.844;2024-02-26T00:47:11;18.45;;;12.07;;
54201;SDS011;40108;53.152;5.844;2024-02-26T00:49:37;20.30;;;12.10;;
54201;SDS011;40108;53.152;5.844;2024-02-26T00:52:02;15.90;;;11.18;;
54201;SDS011;40108;53.152;5.844;2024-02-26T00:54:28;18.92;;;11.93;;
54201;SDS011;40108;53.152;5.844;2024-02-26T00:56:54;14.43;;;10.07;;
54201;SDS011;40108;53.152;5.844;2024-02-26T00:59:20;18.02;;;11.25;;
54201;SDS011;40108;53.152;5.844;2024-02-26T01:01:45;12.75;;;9.57;;
54201;SDS011;40108;53.152;5.844;2024-02-26T01:04:11;13.77;;;9.35;;
54201;SDS011;40108;53.152;5.844;2024-02-26T01:06:37;11.75;;;8.30;;
54201;SDS011;40108;53.152;5.844;2024-02-26T01:09:03;15.20;;;9.27;;
54201;SDS011;40108;53.152;5.844;2024-02-26T01:11:29;12.82;;;8.45;;
54201;SDS011;40108;53.152;5.844;2024-02-26T01:13:55;12.95;;;9.00;;
54201;SDS011;40108;53.152;5.844;2024-02-26T01:16:21;11.27;;;8.13;;
54201;SDS011;40108;53.152;5.844;2024-02-26T01:18:48;12.70;;;8.07;;
54201;SDS011;40108;53.152;5.844;2024-02-26T01:21:13;11.82;;;7.85;;
54201;SDS011;40108;53.152;5.844;2024-02-26T01:23:39;9.68;;;8.05;;
54201;SDS011;40108;53.152;5.844;2024-02-26T01:26:05;9.95;;;7.90;;
54201;SDS011;40108;53.152;5.844;2024-02-26T01:28:31;12.32;;;8.32;;
54201;SDS011;40108;53.152;5.844;2024-02-26T01:30:56;10.45;;;8.25;;
54201;SDS011;40108;53.152;5.844;2024-02-26T01:33:23;11.55;;;7.93;;
54201;SDS011;40108;53.152;5.844;2024-02-26T01:35:50;13.20;;;8.55;;
54201;SDS011;40108;53.152;5.844;2024-02-26T01:38:16;11.30;;;8.20;;
54201;SDS011;40108;53.152;5.844;2024-02-26T01:40:41;13.90;;;8.52;;
54201;SDS011;40108;53.152;5.844;2024-02-26T01:43:07;13.52;;;8.43;;
54201;SDS011;40108;53.152;5.844;2024-02-26T01:45:33;10.15;;;7.22;;
54201;SDS011;40108;53.152;5.844;2024-02-26T01:47:58;11.38;;;8.35;;
54201;SDS011;40108;53.152;5.844;2024-02-26T01:50:24;9.98;;;7.57;;
54201;SDS011;40108;53.152;5.844;2024-02-26T01:52:50;10.60;;;7.55;;
54201;SDS011;40108;53.152;5.844;2024-02-26T01:55:17;10.43;;;7.28;;
54201;SDS011;40108;53.152;5.844;2024-02-26T01:57:45;11.30;;;7.70;;
54201;SDS011;40108;53.152;5.844;2024-02-26T02:00:12;8.48;;;6.82;;
54201;SDS011;40108;53.152;5.844;2024-02-26T02:02:39;10.02;;;6.82;;
54201;SDS011;40108;53.152;5.844;2024-02-26T02:05:07;12.52;;;8.15;;
54201;SDS011;40108;53.152;5.844;2024-02-26T02:07:34;11.07;;;7.28;;
54201;SDS011;40108;53.152;5.844;2024-02-26T02:10:01;15.30;;;8.02;;
54201;SDS011;40108;53.152;5.844;2024-02-26T02:12:27;10.75;;;8.05;;
54201;SDS011;40108;53.152;5.844;2024-02-26T02:14:53;11.07;;;7.72;;
54201;SDS011;40108;53.152;5.844;2024-02-26T02:17:19;10.88;;;7.55;;
54201;SDS011;40108;53.152;5.844;2024-02-26T02:19:45;11.10;;;7.30;;
54201;SDS011;40108;53.152;5.844;2024-02-26T02:22:11;9.23;;;6.95;;
54201;SDS011;40108;53.152;5.844;2024-02-26T02:24:37;10.93;;;7.57;;
54201;SDS011;40108;53.152;5.844;2024-02-26T02:27:02;11.50;;;7.57;;
54201;SDS011;40108;53.152;5.844;2024-02-26T02:29:28;11.27;;;8.15;;
54201;SDS011;40108;53.152;5.844;2024-02-26T02:31:54;9.52;;;7.45;;
54201;SDS011;40108;53.152;5.844;2024-02-26T02:34:21;10.55;;;6.75;;
54201;SDS011;40108;53.152;5.844;2024-02-26T02:36:48;10.20;;;7.38;;
54201;SDS011;40108;53.152;5.844;2024-02-26T02:39:15;11.48;;;6.85;;
54201;SDS011;40108;53.152;5.844;2024-02-26T02:41:41;11.63;;;7.60;;
54201;SDS011;40108;53.152;5.844;2024-02-26T02:44:06;12.27;;;7.75;;
54201;SDS011;40108;53.152;5.844;2024-02-26T02:46:32;9.13;;;7.00;;
54201;SDS011;40108;53.152;5.844;2024-02-26T02:48:58;10.13;;;7.75;;
54201;SDS011;40108;53.152;5.844;2024-02-26T02:51:24;11.60;;;7.15;;
54201;SDS011;40108;53.152;5.844;2024-02-26T02:53:50;11.68;;;6.72;;
54201;SDS011;40108;53.152;5.844;2024-02-26T02:56:15;11.75;;;7.93;;
54201;SDS011;40108;53.152;5.844;2024-02-26T02:58:41;9.73;;;7.65;;
54201;SDS011;40108;53.152;5.844;2024-02-26T03:01:06;9.85;;;7.40;;
54201;SDS011;40108;53.152;5.844;2024-02-26T03:03:33;9.75;;;7.47;;
54201;SDS011;40108;53.152;5.844;2024-02-26T03:05:59;10.68;;;7.15;;
54201;SDS011;40108;53.152;5.844;2024-02-26T03:08:24;10.10;;;6.45;;
54201;SDS011;40108;53.152;5.844;2024-02-26T03:10:51;11.43;;;7.18;;
54201;SDS011;40108;53.152;5.844;2024-02-26T03:13:17;12.57;;;6.82;;
54201;SDS011;40108;53.152;5.844;2024-02-26T03:15:42;7.50;;;6.15;;
54201;SDS011;40108;53.152;5.844;2024-02-26T03:18:08;9.15;;;6.13;;
54201;SDS011;40108;53.152;5.844;2024-02-26T03:20:34;10.75;;;6.50;;
54201;SDS011;40108;53.152;5.844;2024-02-26T03:22:59;10.75;;;6.45;;
54201;SDS011;40108;53.152;5.844;2024-02-26T03:25:25;7.15;;;6.43;;
54201;SDS011;40108;53.152;5.844;2024-02-26T03:27:51;11.05;;;6.57;;
54201;SDS011;40108;53.152;5.844;2024-02-26T03:30:16;8.13;;;6.50;;
54201;SDS011;40108;53.152;5.844;2024-02-26T03:32:42;11.45;;;6.78;;
54201;SDS011;40108;53.152;5.844;2024-02-26T03:35:08;9.23;;;6.55;;
54201;SDS011;40108;53.152;5.844;2024-02-26T03:37:34;12.63;;;7.38;;
54201;SDS011;40108;53.152;5.844;2024-02-26T03:39:59;9.15;;;6.63;;
54201;SDS011;40108;53.152;5.844;2024-02-26T03:42:26;12.57;;;7.22;;
54201;SDS011;40108;53.152;5.844;2024-02-26T03:44:52;9.25;;;7.00;;
54201;SDS011;40108;53.152;5.844;2024-02-26T03:47:17;9.32;;;6.53;;
54201;SDS011;40108;53.152;5.844;2024-02-26T03:49:43;8.27;;;6.43;;
54201;SDS011;40108;53.152;5.844;2024-02-26T03:52:09;12.18;;;6.00;;
54201;SDS011;40108;53.152;5.844;2024-02-26T03:54:35;11.15;;;6.63;;
54201;SDS011;40108;53.152;5.844;2024-02-26T03:57:00;7.95;;;6.38;;
54201;SDS011;40108;53.152;5.844;2024-02-26T03:59:26;10.32;;;6.32;;
54201;SDS011;40108;53.152;5.844;2024-02-26T04:01:52;8.75;;;6.13;;
54201;SDS011;40108;53.152;5.844;2024-02-26T04:04:18;8.80;;;6.20;;
54201;SDS011;40108;53.152;5.844;2024-02-26T04:06:46;12.50;;;6.60;;
54201;SDS011;40108;53.152;5.844;2024-02-26T04:09:15;8.30;;;6.75;;
54201;SDS011;40108;53.152;5.844;2024-02-26T04:11:41;11.38;;;6.20;;
54201;SDS011;40108;53.152;5.844;2024-02-26T04:14:08;9.68;;;6.07;;
54201;SDS011;40108;53.152;5.844;2024-02-26T04:16:36;10.50;;;6.32;;
54201;SDS011;40108;53.152;5.844;2024-02-26T04:19:02;10.77;;;6.45;;
54201;SDS011;40108;53.152;5.844;2024-02-26T04:21:27;8.32;;;6.30;;
54201;SDS011;40108;53.152;5.844;2024-02-26T04:23:53;11.10;;;6.50;;
54201;SDS011;40108;53.152;5.844;2024-02-26T04:26:22;11.95;;;6.53;;
54201;SDS011;40108;53.152;5.844;2024-02-26T04:28:47;9.90;;;6.88;;
54201;SDS011;40108;53.152;5.844;2024-02-26T04:31:13;9.45;;;6.22;;
54201;SDS011;40108;53.152;5.844;2024-02-26T04:33:38;9.85;;;6.70;;
54201;SDS011;40108;53.152;5.844;2024-02-26T04:36:04;13.88;;;6.78;;
54201;SDS011;40108;53.152;5.844;2024-02-26T04:38:30;11.93;;;7.00;;
54201;SDS011;40108;53.152;5.844;2024-02-26T04:40:56;9.30;;;6.60;;
54201;SDS011;40108;53.152;5.844;2024-02-26T04:43:21;12.13;;;6.57;;
54201;SDS011;40108;53.152;5.844;2024-02-26T04:45:47;12.00;;;7.10;;
54201;SDS011;40108;53.152;5.844;2024-02-26T04:48:13;13.18;;;7.00;;
54201;SDS011;40108;53.152;5.844;2024-02-26T04:50:38;9.15;;;6.35;;
54201;SDS011;40108;53.152;5.844;2024-02-26T04:53:04;12.35;;;6.25;;
54201;SDS011;40108;53.152;5.844;2024-02-26T04:55:30;11.05;;;5.93;;
54201;SDS011;40108;53.152;5.844;2024-02-26T04:57:55;11.32;;;6.32;;
54201;SDS011;40108;53.152;5.844;2024-02-26T05:00:21;8.55;;;6.07;;
54201;SDS011;40108;53.152;5.844;2024-02-26T05:02:47;12.93;;;6.32;;
54201;SDS011;40108;53.152;5.844;2024-02-26T05:05:12;10.13;;;6.20;;
54201;SDS011;40108;53.152;5.844;2024-02-26T05:07:41;8.50;;;6.13;;
54201;SDS011;40108;53.152;5.844;2024-02-26T05:10:08;15.60;;;6.38;;
54201;SDS011;40108;53.152;5.844;2024-02-26T05:12:34;7.93;;;6.18;;
54201;SDS011;40108;53.152;5.844;2024-02-26T05:15:01;7.28;;;5.68;;
54201;SDS011;40108;53.152;5.844;2024-02-26T05:17:27;6.35;;;5.50;;
54201;SDS011;40108;53.152;5.844;2024-02-26T05:19:53;6.93;;;4.60;;
54201;SDS011;40108;53.152;5.844;2024-02-26T05:22:19;5.90;;;4.85;;
54201;SDS011;40108;53.152;5.844;2024-02-26T05:24:44;6.30;;;4.53;;
54201;SDS011;40108;53.152;5.844;2024-02-26T05:27:10;7.85;;;4.80;;
54201;SDS011;40108;53.152;5.844;2024-02-26T05:29:37;6.15;;;4.63;;
54201;SDS011;40108;53.152;5.844;2024-02-26T05:32:03;8.15;;;5.05;;
54201;SDS011;40108;53.152;5.844;2024-02-26T05:34:30;6.63;;;4.05;;
54201;SDS011;40108;53.152;5.844;2024-02-26T05:36:55;7.32;;;4.40;;
54201;SDS011;40108;53.152;5.844;2024-02-26T05:39:21;6.93;;;4.20;;
54201;SDS011;40108;53.152;5.844;2024-02-26T05:41:47;8.00;;;4.40;;
54201;SDS011;40108;53.152;5.844;2024-02-26T05:44:14;6.85;;;4.40;;
54201;SDS011;40108;53.152;5.844;2024-02-26T05:46:41;6.93;;;4.15;;
54201;SDS011;40108;53.152;5.844;2024-02-26T05:49:07;10.43;;;4.78;;
54201;SDS011;40108;53.152;5.844;2024-02-26T05:51:33;8.85;;;4.63;;
54201;SDS011;40108;53.152;5.844;2024-02-26T05:53:58;6.63;;;4.20;;
54201;SDS011;40108;53.152;5.844;2024-02-26T05:56:24;8.13;;;4.55;;
54201;SDS011;40108;53.152;5.844;2024-02-26T05:58:50;5.68;;;4.15;;
54201;SDS011;40108;53.152;5.844;2024-02-26T06:01:16;7.28;;;4.20;;
54201;SDS011;40108;53.152;5.844;2024-02-26T06:03:42;5.88;;;3.65;;
54201;SDS011;40108;53.152;5.844;2024-02-26T06:06:09;9.48;;;4.25;;
54201;SDS011;40108;53.152;5.844;2024-02-26T06:08:35;7.13;;;3.47;;
54201;SDS011;40108;53.152;5.844;2024-02-26T06:11:05;5.15;;;3.50;;
54201;SDS011;40108;53.152;5.844;2024-02-26T06:13:32;4.30;;;3.15;;
54201;SDS011;40108;53.152;5.844;2024-02-26T06:15:58;4.38;;;3.47;;
54201;SDS011;40108;53.152;5.844;2024-02-26T06:18:23;4.93;;;3.25;;
54201;SDS011;40108;53.152;5.844;2024-02-26T06:20:49;4.30;;;2.35;;
54201;SDS011;40108;53.152;5.844;2024-02-26T06:23:15;3.88;;;2.78;;
54201;SDS011;40108;53.152;5.844;2024-02-26T06:25:41;7.03;;;2.83;;
54201;SDS011;40108;53.152;5.844;2024-02-26T06:28:07;4.45;;;2.90;;
54201;SDS011;40108;53.152;5.844;2024-02-26T06:30:33;4.10;;;2.90;;
54201;SDS011;40108;53.152;5.844;2024-02-26T06:32:59;4.53;;;3.13;;
54201;SDS011;40108;53.152;5.844;2024-02-26T06:35:25;5.18;;;3.25;;
54201;SDS011;40108;53.152;5.844;2024-02-26T06:37:52;7.00;;;3.17;;
54201;SDS011;40108;53.152;5.844;2024-02-26T06:40:21;4.65;;;2.60;;
54201;SDS011;40108;53.152;5.844;2024-02-26T06:42:47;2.85;;;2.45;;
54201;SDS011;40108;53.152;5.844;2024-02-26T06:45:12;3.85;;;2.20;;
54201;SDS011;40108;53.152;5.844;2024-02-26T06:47:38;6.30;;;2.47;;
54201;SDS011;40108;53.152;5.844;2024-02-26T06:50:04;4.80;;;2.53;;
54201;SDS011;40108;53.152;5.844;2024-02-26T06:52:30;5.60;;;2.38;;
54201;SDS011;40108;53.152;5.844;2024-02-26T06:54:55;6.32;;;2.10;;
54201;SDS011;40108;53.152;5.844;2024-02-26T06:57:21;3.88;;;2.15;;
54201;SDS011;40108;53.152;5.844;2024-02-26T06:59:47;6.03;;;2.92;;
54201;SDS011;40108;53.152;5.844;2024-02-26T07:02:13;4.63;;;2.00;;
54201;SDS011;40108;53.152;5.844;2024-02-26T07:04:39;7.72;;;2.55;;
54201;SDS011;40108;53.152;5.844;2024-02-26T07:07:05;4.82;;;2.05;;
54201;SDS011;40108;53.152;5.844;2024-02-26T07:09:32;6.10;;;2.28;;
54201;SDS011;40108;53.152;5.844;2024-02-26T07:11:58;3.97;;;1.77;;
54201;SDS011;40108;53.152;5.844;2024-02-26T07:14:23;4.85;;;2.42;;
54201;SDS011;40108;53.152;5.844;2024-02-26T07:16:50;4.90;;;2.30;;
54201;SDS011;40108;53.152;5.844;2024-02-26T07:19:16;3.95;;;2.30;;
54201;SDS011;40108;53.152;5.844;2024-02-26T07:21:41;7.90;;;2.78;;
54201;SDS011;40108;53.152;5.844;2024-02-26T07:24:08;5.68;;;2.55;;
54201;SDS011;40108;53.152;5.844;2024-02-26T07:26:33;5.95;;;3.03;;
54201;SDS011;40108;53.152;5.844;2024-02-26T07:28:59;8.10;;;2.80;;
54201;SDS011;40108;53.152;5.844;2024-02-26T07:31:26;6.47;;;2.55;;
54201;SDS011;40108;53.152;5.844;2024-02-26T07:33:59;3.67;;;2.55;;
54201;SDS011;40108;53.152;5.844;2024-02-26T07:36:24;4.75;;;2.50;;
54201;SDS011;40108;53.152;5.844;2024-02-26T07:38:51;8.50;;;2.50;;
54201;SDS011;40108;53.152;5.844;2024-02-26T07:41:19;6.63;;;2.30;;
54201;SDS011;40108;53.152;5.844;2024-02-26T07:43:45;8.93;;;2.30;;
54201;SDS011;40108;53.152;5.844;2024-02-26T07:46:11;3.05;;;2.30;;
54201;SDS011;40108;53.152;5.844;2024-02-26T07:48:37;4.53;;;2.17;;
54201;SDS011;40108;53.152;5.844;2024-02-26T07:51:03;6.72;;;2.17;;
54201;SDS011;40108;53.152;5.844;2024-02-26T07:53:29;3.60;;;2.17;;
54201;SDS011;40108;53.152;5.844;2024-02-26T07:55:56;6.75;;;2.10;;
54201;SDS011;40108;53.152;5.844;2024-02-26T07:58:22;5.88;;;2.30;;
54201;SDS011;40108;53.152;5.844;2024-02-26T08:00:48;4.63;;;2.50;;
54201;SDS011;40108;53.152;5.844;2024-02-26T08:03:14;7.05;;;2.50;;
54201;SDS011;40108;53.152;5.844;2024-02-26T08:05:41;5.30;;;2.20;;
54201;SDS011;40108;53.152;5.844;2024-02-26T08:08:08;5.88;;;2.45;;
54201;SDS011;40108;53.152;5.844;2024-02-26T08:10:34;9.13;;;2.72;;
54201;SDS011;40108;53.152;5.844;2024-02-26T08:13:00;4.93;;;2.45;;
54201;SDS011;40108;53.152;5.844;2024-02-26T08:15:33;5.28;;;2.72;;
54201;SDS011;40108;53.152;5.844;2024-02-26T08:18:00;4.70;;;2.40;;
54201;SDS011;40108;53.152;5.844;2024-02-26T08:20:29;5.72;;;2.60;;
54201;SDS011;40108;53.152;5.844;2024-02-26T08:22:56;5.13;;;2.80;;
54201;SDS011;40108;53.152;5.844;2024-02-26T08:25:22;7.85;;;3.20;;
54201;SDS011;40108;53.152;5.844;2024-02-26T08:27:48;6.95;;;2.90;;
54201;SDS011;40108;53.152;5.844;2024-02-26T08:30:14;5.13;;;2.70;;
54201;SDS011;40108;53.152;5.844;2024-02-26T08:32:48;5.93;;;2.80;;
54201;SDS011;40108;53.152;5.844;2024-02-26T08:35:14;8.55;;;3.03;;
54201;SDS011;40108;53.152;5.844;2024-02-26T08:37:40;3.83;;;2.75;;
54201;SDS011;40108;53.152;5.844;2024-02-26T08:40:06;4.10;;;2.40;;
54201;SDS011;40108;53.152;5.844;2024-02-26T08:42:32;4.65;;;2.70;;
54201;SDS011;40108;53.152;5.844;2024-02-26T08:44:58;5.93;;;2.67;;
54201;SDS011;40108;53.152;5.844;2024-02-26T08:47:26;5.95;;;2.20;;
54201;SDS011;40108;53.152;5.844;2024-02-26T08:49:53;6.55;;;2.50;;
54201;SDS011;40108;53.152;5.844;2024-02-26T08:52:18;4.57;;;2.38;;
54201;SDS011;40108;53.152;5.844;2024-02-26T08:54:44;7.70;;;2.28;;
54201;SDS011;40108;53.152;5.844;2024-02-26T08:57:10;2.33;;;2.05;;
54201;SDS011;40108;53.152;5.844;2024-02-26T08:59:35;3.47;;;2.03;;
54201;SDS011;40108;53.152;5.844;2024-02-26T09:02:01;3.72;;;2.25;;
54201;SDS011;40108;53.152;5.844;2024-02-26T09:04:27;8.02;;;2.58;;
54201;SDS011;40108;53.152;5.844;2024-02-26T09:06:53;4.78;;;2.10;;
54201;SDS011;40108;53.152;5.844;2024-02-26T09:09:19;9.45;;;2.30;;
54201;SDS011;40108;53.152;5.844;2024-02-26T09:11:45;4.93;;;2.20;;
54201;SDS011;40108;53.152;5.844;2024-02-26T09:14:11;3.70;;;1.40;;
54201;SDS011;40108;53.152;5.844;2024-02-26T09:16:37;8.93;;;2.20;;
54201;SDS011;40108;53.152;5.844;2024-02-26T09:19:03;3.95;;;1.77;;
54201;SDS011;40108;53.152;5.844;2024-02-26T09:21:28;7.45;;;2.20;;
54201;SDS011;40108;53.152;5.844;2024-02-26T09:23:55;5.90;;;2.40;;
54201;SDS011;40108;53.152;5.844;2024-02-26T09:26:21;5.13;;;2.10;;
54201;SDS011;40108;53.152;5.844;2024-02-26T09:28:46;5.50;;;2.58;;
54201;SDS011;40108;53.152;5.844;2024-02-26T09:31:12;4.57;;;2.20;;
54201;SDS011;40108;53.152;5.844;2024-02-26T09:33:41;6.43;;;2.42;;
54201;SDS011;40108;53.152;5.844;2024-02-26T09:36:06;6.95;;;2.58;;
54201;SDS011;40108;53.152;5.844;2024-02-26T09:38:32;7.28;;;2.83;;
54201;SDS011;40108;53.152;5.844;2024-02-26T09:41:02;6.57;;;2.58;;
54201;SDS011;40108;53.152;5.844;2024-02-26T09:43:28;6.57;;;2.40;;
54201;SDS011;40108;53.152;5.844;2024-02-26T09:46:01;9.38;;;2.75;;
54201;SDS011;40108;53.152;5.844;2024-02-26T09:48:27;7.35;;;2.42;;
54201;SDS011;40108;53.152;5.844;2024-02-26T09:50:54;6.07;;;2.15;;
54201;SDS011;40108;53.152;5.844;2024-02-26T09:53:20;4.43;;;2.20;;
54201;SDS011;40108;53.152;5.844;2024-02-26T09:55:47;8.82;;;2.20;;
54201;SDS011;40108;53.152;5.844;2024-02-26T09:58:13;9.05;;;2.30;;
54201;SDS011;40108;53.152;5.844;2024-02-26T10:00:43;6.85;;;3.40;;
54201;SDS011;40108;53.152;5.844;2024-02-26T10:03:15;4.60;;;2.25;;
54201;SDS011;40108;53.152;5.844;2024-02-26T10:05:41;3.92;;;2.40;;
54201;SDS011;40108;53.152;5.844;2024-02-26T10:08:07;7.30;;;2.92;;
54201;SDS011;40108;53.152;5.844;2024-02-26T10:10:34;8.00;;;3.60;;
54201;SDS011;40108;53.152;5.844;2024-02-26T10:13:01;9.18;;;2.75;;
54201;SDS011;40108;53.152;5.844;2024-02-26T10:15:29;3.80;;;2.42;;
54201;SDS011;40108;53.152;5.844;2024-02-26T10:17:54;4.00;;;1.52;;
54201;SDS011;40108;53.152;5.844;2024-02-26T10:20:20;5.05;;;1.83;;
54201;SDS011;40108;53.152;5.844;2024-02-26T10:22:48;4.82;;;1.90;;
54201;SDS011;40108;53.152;5.844;2024-02-26T10:25:14;5.45;;;2.25;;
54201;SDS011;40108;53.152;5.844;2024-02-26T10:27:40;4.30;;;2.40;;
54201;SDS011;40108;53.152;5.844;2024-02-26T10:30:20;5.18;;;2.08;;
54201;SDS011;40108;53.152;5.844;2024-02-26T10:32:46;4.75;;;2.47;;
54201;SDS011;40108;53.152;5.844;2024-02-26T10:35:14;4.55;;;1.70;;
54201;SDS011;40108;53.152;5.844;2024-02-26T10:37:40;4.55;;;1.40;;
54201;SDS011;40108;53.152;5.844;2024-02-26T10:40:09;6.75;;;2.05;;
54201;SDS011;40108;53.152;5.844;2024-02-26T10:42:36;5.47;;;2.03;;
54201;SDS011;40108;53.152;5.844;2024-02-26T10:45:03;4.82;;;1.58;;
54201;SDS011;40108;53.152;5.844;2024-02-26T10:47:30;4.88;;;1.90;;
54201;SDS011;40108;53.152;5.844;2024-02-26T10:49:56;4.57;;;1.63;;
54201;SDS011;40108;53.152;5.844;2024-02-26T10:52:23;7.10;;;1.42;;
54201;SDS011;40108;53.152;5.844;2024-02-26T10:54:50;3.20;;;1.33;;
54201;SDS011;40108;53.152;5.844;2024-02-26T10:57:21;5.18;;;1.33;;
54201;SDS011;40108;53.152;5.844;2024-02-26T10:59:49;3.40;;;2.00;;
54201;SDS011;40108;53.152;5.844;2024-02-26T11:02:16;3.75;;;2.33;;
54201;SDS011;40108;53.152;5.844;2024-02-26T11:04:43;6.70;;;2.33;;
54201;SDS011;40108;53.152;5.844;2024-02-26T11:07:10;6.65;;;3.47;;
54201;SDS011;40108;53.152;5.844;2024-02-26T11:09:37;9.38;;;3.63;;
54201;SDS011;40108;53.152;5.844;2024-02-26T11:12:08;6.07;;;2.90;;
54201;SDS011;40108;53.152;5.844;2024-02-26T11:14:38;3.08;;;1.80;;
54201;SDS011;40108;53.152;5.844;2024-02-26T11:17:07;7.20;;;2.20;;
54201;SDS011;40108;53.152;5.844;2024-02-26T11:19:34;5.40;;;2.38;;
54201;SDS011;40108;53.152;5.844;2024-02-26T11:22:01;5.70;;;1.85;;
54201;SDS011;40108;53.152;5.844;2024-02-26T11:24:27;4.60;;;2.50;;
54201;SDS011;40108;53.152;5.844;2024-02-26T11:26:54;4.75;;;2.90;;
54201;SDS011;40108;53.152;5.844;2024-02-26T11:29:27;5.15;;;2.80;;
54201;SDS011;40108;53.152;5.844;2024-02-26T11:31:59;3.65;;;2.15;;
54201;SDS011;40108;53.152;5.844;2024-02-26T11:34:25;4.85;;;2.65;;
54201;SDS011;40108;53.152;5.844;2024-02-26T11:36:52;5.70;;;2.80;;
54201;SDS011;40108;53.152;5.844;2024-02-26T11:39:19;4.78;;;2.42;;
54201;SDS011;40108;53.152;5.844;2024-02-26T11:41:45;9.25;;;2.85;;
54201;SDS011;40108;53.152;5.844;2024-02-26T11:44:11;7.32;;;3.00;;
54201;SDS011;40108;53.152;5.844;2024-02-26T11:46:41;4.43;;;2.88;;
54201;SDS011;40108;53.152;5.844;2024-02-26T11:51:55;8.50;;;2.90;;
54201;SDS011;40108;53.152;5.844;2024-02-26T12:00:12;4.50;;;2.97;;
54201;SDS011;40108;53.152;5.844;2024-02-26T12:02:45;9.68;;;3.35;;
54201;SDS011;40108;53.152;5.844;2024-02-26T12:05:16;8.07;;;3.20;;
54201;SDS011;40108;53.152;5.844;2024-02-26T12:07:46;5.05;;;2.83;;
54201;SDS011;40108;53.152;5.844;2024-02-26T12:12:59;6.53;;;2.85;;
54201;SDS011;40108;53.152;5.844;2024-02-26T12:15:30;7.32;;;2.53;;
54201;SDS011;40108;53.152;5.844;2024-02-26T12:18:03;7.53;;;3.50;;
54201;SDS011;40108;53.152;5.844;2024-02-26T12:20:31;10.88;;;2.85;;
54201;SDS011;40108;53.152;5.844;2024-02-26T12:22:57;9.65;;;3.70;;
54201;SDS011;40108;53.152;5.844;2024-02-26T12:25:24;6.47;;;3.10;;
54201;SDS011;40108;53.152;5.844;2024-02-26T12:27:54;5.38;;;3.10;;
54201;SDS011;40108;53.152;5.844;2024-02-26T12:30:20;20.65;;;4.47;;
54201;SDS011;40108;53.152;5.844;2024-02-26T12:32:47;10.65;;;3.00;;
54201;SDS011;40108;53.152;5.844;2024-02-26T12:35:14;7.25;;;3.00;;
54201;SDS011;40108;53.152;5.844;2024-02-26T12:37:41;7.93;;;2.90;;
54201;SDS011;40108;53.152;5.844;2024-02-26T12:40:10;10.00;;;2.78;;
54201;SDS011;40108;53.152;5.844;2024-02-26T12:42:38;6.20;;;2.85;;
54201;SDS011;40108;53.152;5.844;2024-02-26T12:45:05;8.85;;;3.65;;
54201;SDS011;40108;53.152;5.844;2024-02-26T12:50:10;11.32;;;4.03;;
54201;SDS011;40108;53.152;5.844;2024-02-26T12:52:38;9.65;;;3.58;;
54201;SDS011;40108;53.152;5.844;2024-02-26T12:55:06;10.43;;;3.70;;
54201;SDS011;40108;53.152;5.844;2024-02-26T12:57:34;8.95;;;3.20;;
54201;SDS011;40108;53.152;5.844;2024-02-26T13:00:02;8.40;;;3.30;;
54201;SDS011;40108;53.152;5.844;2024-02-26T13:02:36;6.38;;;3.22;;
54201;SDS011;40108;53.152;5.844;2024-02-26T13:05:05;7.72;;;3.33;;
54201;SDS011;40108;53.152;5.844;2024-02-26T13:07:33;6.07;;;3.25;;
54201;SDS011;40108;53.152;5.844;2024-02-26T13:09:59;9.88;;;3.55;;
54201;SDS011;40108;53.152;5.844;2024-02-26T13:12:25;10.52;;;3.45;;
54201;SDS011;40108;53.152;5.844;2024-02-26T13:14:58;8.82;;;3.38;;
54201;SDS011;40108;53.152;5.844;2024-02-26T13:17:25;8.27;;;3.03;;
54201;SDS011;40108;53.152;5.844;2024-02-26T13:19:53;8.43;;;2.70;;
54201;SDS011;40108;53.152;5.844;2024-02-26T13:22:22;7.05;;;3.17;;
54201;SDS011;40108;53.152;5.844;2024-02-26T13:24:55;7.88;;;3.25;;
54201;SDS011;40108;53.152;5.844;2024-02-26T13:27:22;7.78;;;3.25;;
54201;SDS011;40108;53.152;5.844;2024-02-26T13:29:48;9.43;;;3.38;;
54201;SDS011;40108;53.152;5.844;2024-02-26T13:32:14;8.57;;;3.65;;
54201;SDS011;40108;53.152;5.844;2024-02-26T13:34:40;6.90;;;3.55;;
54201;SDS011;40108;53.152;5.844;2024-02-26T13:37:05;8.98;;;3.00;;
54201;SDS011;40108;53.152;5.844;2024-02-26T13:39:31;10.88;;;3.40;;
54201;SDS011;40108;53.152;5.844;2024-02-26T13:41:57;7.85;;;3.20;;
54201;SDS011;40108;53.152;5.844;2024-02-26T13:44:23;7.05;;;2.42;;
54201;SDS011;40108;53.152;5.844;2024-02-26T13:46:49;6.38;;;3.45;;
54201;SDS011;40108;53.152;5.844;2024-02-26T13:49:15;8.02;;;2.78;;
54201;SDS011;40108;53.152;5.844;2024-02-26T13:51:41;11.95;;;3.17;;
54201;SDS011;40108;53.152;5.844;2024-02-26T13:54:07;11.55;;;2.90;;
54201;SDS011;40108;53.152;5.844;2024-02-26T13:56:34;9.48;;;2.65;;
54201;SDS011;40108;53.152;5.844;2024-02-26T13:59:00;7.15;;;2.55;;
54201;SDS011;40108;53.152;5.844;2024-02-26T14:01:26;8.85;;;2.30;;
54201;SDS011;40108;53.152;5.844;2024-02-26T14:03:51;6.47;;;2.42;;
54201;SDS011;40108;53.152;5.844;2024-02-26T14:06:20;10.50;;;2.67;;
54201;SDS011;40108;53.152;5.844;2024-02-26T14:08:46;10.73;;;3.45;;
54201;SDS011;40108;53.152;5.844;2024-02-26T14:11:11;7.55;;;3.42;;
54201;SDS011;40108;53.152;5.844;2024-02-26T14:13:37;8.48;;;2.63;;
54201;SDS011;40108;53.152;5.844;2024-02-26T14:16:03;5.28;;;2.42;;
54201;SDS011;40108;53.152;5.844;2024-02-26T14:18:29;9.27;;;2.35;;
54201;SDS011;40108;53.152;5.844;2024-02-26T14:20:54;6.03;;;3.10;;
54201;SDS011;40108;53.152;5.844;2024-02-26T14:23:20;6.47;;;2.65;;
54201;SDS011;40108;53.152;5.844;2024-02-26T14:25:45;5.65;;;2.20;;
54201;SDS011;40108;53.152;5.844;2024-02-26T14:28:11;5.90;;;2.90;;
54201;SDS011;40108;53.152;5.844;2024-02-26T14:30:37;5.32;;;2.90;;
54201;SDS011;40108;53.152;5.844;2024-02-26T14:33:02;5.90;;;2.70;;
54201;SDS011;40108;53.152;5.844;2024-02-26T14:35:28;5.57;;;2.33;;
54201;SDS011;40108;53.152;5.844;2024-02-26T14:37:54;6.35;;;3.00;;
54201;SDS011;40108;53.152;5.844;2024-02-26T14:40:20;7.78;;;2.60;;
54201;SDS011;40108;53.152;5.844;2024-02-26T14:42:46;6.50;;;2.58;;
54201;SDS011;40108;53.152;5.844;2024-02-26T14:45:11;3.33;;;2.25;;
54201;SDS011;40108;53.152;5.844;2024-02-26T14:47:37;6.80;;;2.72;;
54201;SDS011;40108;53.152;5.844;2024-02-26T14:50:04;6.10;;;2.10;;
54201;SDS011;40108;53.152;5.844;2024-02-26T14:52:30;7.47;;;2.15;;